createdAt,value
2023-01-09T00:01:26.058Z,6.00
2023-01-09T00:03:54.053Z,6.00
2023-01-09T00:06:22.305Z,6.10
2023-01-09T00:08:50.229Z,6.10
2023-01-09T00:11:18.055Z,6.10
2023-01-09T00:13:47.082Z,6.10
2023-01-09T00:16:17.077Z,6.10
2023-01-09T00:18:44.974Z,6.10
2023-01-09T00:21:14.498Z,6.10
2023-01-09T00:23:42.534Z,6.10
2023-01-09T00:26:12.725Z,6.10
2023-01-09T00:28:40.619Z,6.10
2023-01-09T00:31:09.515Z,6.10
2023-01-09T00:33:42.334Z,6.10
2023-01-09T00:36:11.098Z,6.10
2023-01-09T00:38:39.406Z,6.10
2023-01-09T00:41:10.705Z,6.10
2023-01-09T00:43:41.791Z,6.10
2023-01-09T00:46:10.191Z,6.10
2023-01-09T00:48:42.692Z,6.10
2023-01-09T00:51:10.669Z,6.10
2023-01-09T00:53:42.225Z,6.10
2023-01-09T00:56:14.601Z,6.10
2023-01-09T00:58:42.713Z,6.10
2023-01-09T01:01:10.839Z,6.20
2023-01-09T01:03:40.673Z,6.10
2023-01-09T01:06:26.373Z,6.10
2023-01-09T01:08:55.768Z,6.20
2023-01-09T01:11:24.540Z,6.20
2023-01-09T01:13:52.906Z,6.20
2023-01-09T01:16:21.103Z,6.20
2023-01-09T01:18:50.539Z,6.20
2023-01-09T01:21:18.984Z,6.20
2023-01-09T01:23:46.802Z,6.30
2023-01-09T01:26:16.708Z,6.20
2023-01-09T01:28:45.084Z,6.30
2023-01-09T01:31:18.485Z,6.30
2023-01-09T01:33:46.987Z,6.30
2023-01-09T01:36:17.545Z,6.30
2023-01-09T01:38:46.820Z,6.30
2023-01-09T01:41:14.777Z,6.30
2023-01-09T01:43:54.287Z,6.30
2023-01-09T01:46:22.575Z,6.30
2023-01-09T01:48:55.035Z,6.30
2023-01-09T01:51:27.704Z,6.40
2023-01-09T01:53:59.906Z,6.40
2023-01-09T01:56:31.055Z,6.40
2023-01-09T01:59:04.225Z,6.40
2023-01-09T02:01:33.806Z,6.40
2023-01-09T02:04:03.382Z,6.40
2023-01-09T02:06:35.384Z,6.40
2023-01-09T02:09:05.136Z,6.40
2023-01-09T02:11:33.482Z,6.40
2023-01-09T02:14:02.584Z,6.40
2023-01-09T02:16:51.870Z,6.40
2023-01-09T02:19:44.388Z,6.40
2023-01-09T02:22:19.908Z,6.50
2023-01-09T02:25:23.401Z,6.50
2023-01-09T02:28:24.654Z,6.50
2023-01-09T02:30:58.351Z,6.50
2023-01-09T02:33:37.748Z,6.50
2023-01-09T02:36:13.117Z,6.50
2023-01-09T02:38:53.049Z,6.50
2023-01-09T02:41:25.261Z,6.60
2023-01-09T02:44:12.713Z,6.60
2023-01-09T02:46:41.913Z,6.60
2023-01-09T02:49:09.873Z,6.60
2023-01-09T02:51:47.663Z,6.60
2023-01-09T02:54:29.038Z,6.60
2023-01-09T02:57:15.531Z,6.60
2023-01-09T02:59:57.427Z,6.60
2023-01-09T03:02:41.381Z,6.70
2023-01-09T03:05:17.381Z,6.70
2023-01-09T03:07:53.147Z,6.70
2023-01-09T03:10:24.324Z,6.70
2023-01-09T03:12:54.915Z,6.70
2023-01-09T03:15:27.298Z,6.70
2023-01-09T03:17:57.277Z,6.70
2023-01-09T03:20:28.571Z,6.70
2023-01-09T03:22:58.237Z,6.70
2023-01-09T03:25:27.234Z,6.70
2023-01-09T03:27:58.643Z,6.80
2023-01-09T03:30:28.268Z,6.80
2023-01-09T03:32:58.300Z,6.80
2023-01-09T03:35:26.750Z,6.80
2023-01-09T03:37:55.191Z,6.90
2023-01-09T03:40:23.385Z,6.90
2023-01-09T03:42:51.292Z,6.90
2023-01-09T03:45:19.235Z,6.90
2023-01-09T03:47:47.121Z,6.90
2023-01-09T03:50:16.769Z,6.90
2023-01-09T03:52:44.586Z,6.90
2023-01-09T03:55:14.229Z,6.90
2023-01-09T03:57:43.257Z,6.90
2023-01-09T04:00:12.361Z,6.90
2023-01-09T04:02:40.245Z,6.90
2023-01-09T04:05:09.365Z,6.90
2023-01-09T04:07:38.706Z,6.90
2023-01-09T04:10:07.787Z,6.90
2023-01-09T04:12:35.601Z,6.80
2023-01-09T04:15:03.444Z,6.80
2023-01-09T04:17:31.263Z,6.80
2023-01-09T04:19:59.369Z,6.80
2023-01-09T04:22:27.283Z,6.80
2023-01-09T04:24:56.428Z,6.90
2023-01-09T04:27:24.322Z,6.90
2023-01-09T04:29:52.216Z,6.90
2023-01-09T04:32:20.031Z,6.90
2023-01-09T04:34:47.889Z,6.90
2023-01-09T04:37:16.152Z,6.90
2023-01-09T04:39:44.334Z,6.90
2023-01-09T04:42:13.828Z,6.90
2023-01-09T04:44:41.663Z,6.90
2023-01-09T04:47:09.501Z,6.90
2023-01-09T04:49:37.415Z,6.90
2023-01-09T04:52:05.610Z,6.80
2023-01-09T04:54:34.367Z,6.80
2023-01-09T04:57:02.188Z,6.80
2023-01-09T04:59:31.436Z,6.80
2023-01-09T05:01:59.481Z,6.80
2023-01-09T05:04:27.551Z,6.80
2023-01-09T05:06:55.465Z,6.80
2023-01-09T05:09:23.476Z,6.80
2023-01-09T05:11:51.616Z,6.80
2023-01-09T05:14:19.811Z,6.80
2023-01-09T05:16:49.168Z,6.80
2023-01-09T05:19:17.036Z,6.80
2023-01-09T05:21:44.850Z,6.80
2023-01-09T05:24:12.705Z,6.80
2023-01-09T05:26:40.642Z,6.70
2023-01-09T05:29:08.677Z,6.70
2023-01-09T05:31:36.513Z,6.70
2023-01-09T05:34:05.832Z,6.60
2023-01-09T05:36:33.898Z,6.60
2023-01-09T05:39:02.771Z,6.60
2023-01-09T05:41:30.642Z,6.60
2023-01-09T05:43:58.599Z,6.50
2023-01-09T05:46:26.438Z,6.50
2023-01-09T05:48:54.281Z,6.50
2023-01-09T05:51:23.730Z,6.40
2023-01-09T05:53:51.647Z,6.40
2023-01-09T05:56:19.483Z,6.40
2023-01-09T05:58:47.346Z,6.40
2023-01-09T06:01:15.324Z,6.30
2023-01-09T06:03:43.309Z,6.30
2023-01-09T06:06:11.157Z,6.30
2023-01-09T06:08:40.350Z,6.30
2023-01-09T06:11:08.257Z,6.30
2023-01-09T06:13:36.119Z,6.30
2023-01-09T06:16:04.046Z,6.30
2023-01-09T06:18:32.018Z,6.20
2023-01-09T06:20:59.907Z,6.20
2023-01-09T06:23:27.776Z,6.20
2023-01-09T06:25:56.961Z,6.20
2023-01-09T06:28:24.934Z,6.10
2023-01-09T06:30:53.851Z,6.10
2023-01-09T06:33:22.300Z,6.00
2023-01-09T06:35:50.203Z,6.00
2023-01-09T06:38:18.014Z,6.00
2023-01-09T06:40:45.906Z,6.00
2023-01-09T06:43:15.066Z,5.90
2023-01-09T06:45:44.443Z,5.90
2023-01-09T06:48:13.071Z,5.90
2023-01-09T06:50:41.013Z,5.90
2023-01-09T06:53:10.652Z,5.90
2023-01-09T06:55:38.541Z,5.90
2023-01-09T06:58:06.443Z,5.90
2023-01-09T07:00:35.864Z,5.90
2023-01-09T07:03:03.873Z,5.80
2023-01-09T07:05:32.536Z,5.90
2023-01-09T07:08:00.391Z,5.90
2023-01-09T07:10:28.468Z,5.90
2023-01-09T07:12:56.320Z,5.90
2023-01-09T07:15:24.354Z,5.90
2023-01-09T07:17:54.175Z,5.90
2023-01-09T07:20:22.439Z,5.90
2023-01-09T07:22:50.314Z,5.90
2023-01-09T07:25:18.527Z,5.90
2023-01-09T07:27:46.342Z,5.90
2023-01-09T07:30:15.375Z,5.90
2023-01-09T07:32:43.239Z,5.90
2023-01-09T07:35:12.642Z,5.90
2023-01-09T07:37:40.589Z,5.90
2023-01-09T07:40:09.904Z,5.90
2023-01-09T07:42:37.769Z,5.90
2023-01-09T07:45:06.553Z,5.90
2023-01-09T07:47:34.471Z,5.90
2023-01-09T07:50:02.293Z,5.90
2023-01-09T07:52:31.564Z,5.90
2023-01-09T07:54:59.387Z,5.90
2023-01-09T07:57:27.247Z,5.90
2023-01-09T07:59:55.095Z,5.90
2023-01-09T08:02:23.064Z,5.90
2023-01-09T08:04:50.993Z,5.90
2023-01-09T08:07:18.842Z,5.90
2023-01-09T08:09:48.013Z,5.90
2023-01-09T08:12:15.902Z,5.90
2023-01-09T08:14:43.730Z,5.90
2023-01-09T08:17:11.807Z,6.00
2023-01-09T08:19:40.149Z,5.90
2023-01-09T08:22:08.111Z,5.90
2023-01-09T08:24:36.655Z,5.90
2023-01-09T08:27:05.860Z,5.90
2023-01-09T08:29:33.754Z,6.00
2023-01-09T08:32:01.630Z,6.00
2023-01-09T08:34:30.418Z,6.00
2023-01-09T08:36:59.349Z,6.10
2023-01-09T08:39:27.154Z,6.10
2023-01-09T08:42:12.420Z,6.00
2023-01-09T08:44:59.269Z,6.10
2023-01-09T08:47:28.714Z,6.20
2023-01-09T08:49:56.576Z,6.30
2023-01-09T08:52:24.463Z,6.30
2023-01-09T08:54:52.285Z,6.30
2023-01-09T08:57:20.171Z,6.40
2023-01-09T08:59:49.348Z,6.40
2023-01-09T09:02:17.239Z,6.40
2023-01-09T09:04:46.236Z,6.40
2023-01-09T09:07:14.085Z,6.40
2023-01-09T09:09:41.963Z,6.40
2023-01-09T09:12:09.816Z,6.30
2023-01-09T09:14:55.339Z,6.30
2023-01-09T09:17:24.538Z,6.30
2023-01-09T09:19:52.445Z,6.30
2023-01-09T09:22:20.295Z,6.30
2023-01-09T09:24:48.132Z,6.30
2023-01-09T09:27:16.229Z,6.30
2023-01-09T09:29:44.273Z,6.30
2023-01-09T09:32:12.180Z,6.30
2023-01-09T09:34:41.372Z,6.20
2023-01-09T09:37:09.262Z,6.20
2023-01-09T09:39:37.130Z,6.20
2023-01-09T09:42:58.443Z,6.10
2023-01-09T09:45:38.177Z,6.10
2023-01-09T09:48:19.085Z,6.10
2023-01-09T09:51:27.116Z,6.10
2023-01-09T09:54:00.864Z,6.00
2023-01-09T09:56:33.159Z,6.00
2023-01-09T09:59:03.757Z,6.00
2023-01-09T10:01:39.051Z,6.00
2023-01-09T10:04:12.595Z,6.00
2023-01-09T10:06:45.740Z,6.00
2023-01-09T10:09:24.275Z,6.00
2023-01-09T10:11:58.135Z,6.00
2023-01-09T10:14:26.203Z,6.00
2023-01-09T10:17:12.253Z,6.00
2023-01-09T10:19:59.926Z,6.00
2023-01-09T10:22:40.599Z,6.00
2023-01-09T10:25:22.354Z,6.00
2023-01-09T10:28:11.769Z,6.00
2023-01-09T10:30:43.658Z,6.00
2023-01-09T10:33:27.450Z,6.00
2023-01-09T10:36:31.867Z,6.00
2023-01-09T10:39:04.338Z,6.10
2023-01-09T10:41:36.076Z,6.10
2023-01-09T10:44:13.371Z,6.10
2023-01-09T10:46:48.410Z,6.10
2023-01-09T10:49:18.498Z,6.10
2023-01-09T10:51:49.324Z,6.10
2023-01-09T10:54:23.329Z,6.10
2023-01-09T10:56:56.264Z,6.10
2023-01-09T10:59:24.746Z,6.10
2023-01-09T11:01:53.015Z,6.20
2023-01-09T11:04:26.641Z,6.20
2023-01-09T11:06:59.576Z,6.20
2023-01-09T11:09:28.832Z,6.10
2023-01-09T11:11:56.656Z,6.20
2023-01-09T11:14:27.858Z,6.30
2023-01-09T11:16:57.739Z,6.30
2023-01-09T11:19:26.988Z,6.30
2023-01-09T11:22:08.644Z,6.30
2023-01-09T11:24:37.917Z,6.30
2023-01-09T11:27:25.925Z,6.30
2023-01-09T11:30:16.704Z,6.40
2023-01-09T11:32:46.360Z,6.40
2023-01-09T11:35:21.721Z,6.40
2023-01-09T11:37:59.282Z,6.40
2023-01-09T11:40:30.638Z,6.40
2023-01-09T11:43:12.885Z,6.40
2023-01-09T11:45:56.389Z,6.50
2023-01-09T11:48:39.941Z,6.50
2023-01-09T11:51:19.659Z,6.50
2023-01-09T11:54:01.717Z,6.50
2023-01-09T11:56:31.278Z,6.50
2023-01-09T11:59:00.626Z,6.50
2023-01-09T12:02:01.106Z,6.50
2023-01-09T12:04:35.057Z,6.50
2023-01-09T12:07:31.495Z,6.50
2023-01-09T12:10:08.802Z,6.50
2023-01-09T12:12:49.888Z,6.50
2023-01-09T12:15:26.726Z,6.50
2023-01-09T12:18:06.905Z,6.50
2023-01-09T12:21:00.592Z,6.60
2023-01-09T12:23:39.041Z,6.60
2023-01-09T12:26:16.444Z,6.70
2023-01-09T12:29:19.200Z,6.70
2023-01-09T12:32:00.907Z,6.70
2023-01-09T12:34:45.282Z,6.80
2023-01-09T12:37:26.501Z,6.80
2023-01-09T12:40:03.954Z,6.80
2023-01-09T12:42:46.828Z,6.80
2023-01-09T12:45:34.385Z,6.80
2023-01-09T12:48:13.322Z,6.80
2023-01-09T12:51:01.950Z,6.90
2023-01-09T12:53:34.675Z,6.90
2023-01-09T12:56:08.612Z,6.90
2023-01-09T12:58:42.971Z,6.90
2023-01-09T13:01:16.328Z,6.90
2023-01-09T13:03:50.019Z,7.00
2023-01-09T13:06:20.301Z,7.00
2023-01-09T13:08:51.815Z,7.10
2023-01-09T13:11:28.738Z,7.10
2023-01-09T13:14:03.171Z,7.20
2023-01-09T13:16:41.506Z,7.20
2023-01-09T13:19:14.961Z,7.20
2023-01-09T13:21:43.098Z,7.20
2023-01-09T13:24:21.287Z,7.20
2023-01-09T13:26:52.878Z,7.20
2023-01-09T13:29:24.103Z,7.30
2023-01-09T13:32:24.677Z,7.30
2023-01-09T13:34:57.331Z,7.30
2023-01-09T13:37:28.751Z,7.20
2023-01-09T13:39:58.888Z,7.30
2023-01-09T13:42:39.817Z,7.20
2023-01-09T13:45:20.080Z,7.20
2023-01-09T13:48:25.244Z,7.20
2023-01-09T13:50:55.763Z,7.20
2023-01-09T13:53:48.129Z,7.20
2023-01-09T13:56:16.098Z,7.20
2023-01-09T13:59:03.776Z,7.10
2023-01-09T14:01:43.734Z,7.10
2023-01-09T14:04:47.241Z,7.10
2023-01-09T14:07:23.896Z,7.00
2023-01-09T14:09:56.270Z,7.00
2023-01-09T14:12:25.368Z,7.00
2023-01-09T14:14:56.128Z,7.00
2023-01-09T14:17:30.946Z,7.00
2023-01-09T14:20:02.782Z,7.00
2023-01-09T14:22:42.371Z,7.00
2023-01-09T14:25:24.972Z,7.00
2023-01-09T14:28:20.700Z,7.00
2023-01-09T14:31:10.679Z,7.00
2023-01-09T14:33:39.175Z,7.00
2023-01-09T14:36:16.508Z,7.00
2023-01-09T14:38:46.786Z,6.90
2023-01-09T14:41:46.785Z,7.00
2023-01-09T14:44:25.997Z,7.00
2023-01-09T14:46:55.461Z,7.00
2023-01-09T14:49:32.932Z,7.00
2023-01-09T14:52:08.962Z,6.90
2023-01-09T14:54:41.835Z,6.90
2023-01-09T14:57:25.429Z,6.90
2023-01-09T14:59:57.605Z,6.90
2023-01-09T15:02:28.042Z,6.90
2023-01-09T15:04:57.962Z,6.80
2023-01-09T15:07:34.228Z,6.80
2023-01-09T15:10:03.913Z,6.80
2023-01-09T15:12:33.019Z,6.80
2023-01-09T15:15:04.719Z,6.90
2023-01-09T15:17:38.248Z,6.80
2023-01-09T15:20:08.002Z,6.70
2023-01-09T15:22:39.048Z,6.70
2023-01-09T15:25:33.896Z,6.70
2023-01-09T15:28:23.944Z,6.70
2023-01-09T15:30:57.158Z,6.60
2023-01-09T15:33:25.414Z,6.70
2023-01-09T15:35:59.966Z,6.60
2023-01-09T15:38:32.185Z,6.60
2023-01-09T15:41:02.322Z,6.60
2023-01-09T15:43:33.163Z,6.50
2023-01-09T15:46:02.340Z,6.50
2023-01-09T15:48:32.888Z,6.50
2023-01-09T15:51:05.825Z,6.50
2023-01-09T15:53:35.878Z,6.40
2023-01-09T15:56:07.319Z,6.40
2023-01-09T15:58:36.968Z,6.40
2023-01-09T16:01:07.675Z,6.40
2023-01-09T16:03:38.242Z,6.40
2023-01-09T16:06:11.028Z,6.40
2023-01-09T16:08:43.213Z,6.40
2023-01-09T16:11:23.447Z,6.40
2023-01-09T16:13:51.906Z,6.30
2023-01-09T16:16:29.986Z,6.30
2023-01-09T16:19:01.871Z,6.20
2023-01-09T16:21:36.118Z,6.20
2023-01-09T16:24:26.114Z,6.20
2023-01-09T16:27:11.458Z,6.20
2023-01-09T16:29:45.996Z,6.10
2023-01-09T16:32:20.454Z,6.10
2023-01-09T16:34:53.106Z,6.10
2023-01-09T16:37:21.085Z,6.10
2023-01-09T16:40:32.074Z,6.10
2023-01-09T16:43:01.226Z,6.10
2023-01-09T16:45:31.995Z,6.10
2023-01-09T16:48:00.306Z,6.10
2023-01-09T16:50:28.159Z,6.10
2023-01-09T16:52:57.788Z,6.10
2023-01-09T16:55:27.044Z,6.10
2023-01-09T16:57:55.673Z,6.10
2023-01-09T17:00:23.858Z,6.10
2023-01-09T17:02:52.041Z,6.10
2023-01-09T17:05:19.909Z,6.10
2023-01-09T17:07:47.743Z,6.10
2023-01-09T17:10:21.852Z,6.20
2023-01-09T17:12:51.109Z,6.20
2023-01-09T17:15:19.099Z,6.20
2023-01-09T17:17:47.031Z,6.10
2023-01-09T17:20:17.497Z,6.10
2023-01-09T17:22:45.395Z,6.10
2023-01-09T17:25:34.565Z,6.10
2023-01-09T17:28:22.618Z,6.10
2023-01-09T17:30:50.633Z,6.10
2023-01-09T17:33:19.482Z,6.10
2023-01-09T17:35:47.650Z,6.10
2023-01-09T17:38:16.271Z,6.20
2023-01-09T17:40:44.679Z,6.20
2023-01-09T17:43:13.953Z,6.20
2023-01-09T17:45:43.330Z,6.20
2023-01-09T17:48:18.742Z,6.20
2023-01-09T17:50:48.329Z,6.20
2023-01-09T17:53:17.752Z,6.20
2023-01-09T17:55:45.666Z,6.20
2023-01-09T17:58:26.384Z,6.20
2023-01-09T18:00:54.396Z,6.10
2023-01-09T18:03:24.330Z,6.10
2023-01-09T18:05:52.632Z,6.20
2023-01-09T18:08:20.607Z,6.20
2023-01-09T18:10:48.963Z,6.10
2023-01-09T18:13:17.472Z,6.10
2023-01-09T18:15:47.155Z,6.00
2023-01-09T18:18:16.149Z,6.00
2023-01-09T18:20:46.301Z,5.90
2023-01-09T18:23:14.759Z,5.90
2023-01-09T18:25:43.618Z,5.90
2023-01-09T18:28:15.064Z,5.90
2023-01-09T18:30:45.490Z,5.90
2023-01-09T18:33:15.868Z,5.90
2023-01-09T18:35:44.208Z,5.90
2023-01-09T18:38:13.678Z,5.90
2023-01-09T18:40:41.761Z,5.90
2023-01-09T18:43:11.396Z,5.90
2023-01-09T18:45:39.583Z,5.90
2023-01-09T18:48:07.947Z,5.90
2023-01-09T18:50:37.203Z,5.90
2023-01-09T18:53:05.106Z,5.80
2023-01-09T18:55:32.957Z,5.70
2023-01-09T18:58:00.850Z,5.50
2023-01-09T19:00:28.687Z,5.40
2023-01-09T19:02:56.546Z,5.30
2023-01-09T19:05:25.411Z,5.20
2023-01-09T19:07:55.020Z,5.00
2023-01-09T19:10:22.918Z,4.80
2023-01-09T19:12:50.782Z,4.70
2023-01-09T19:15:18.750Z,4.60
2023-01-09T19:17:46.887Z,4.50
2023-01-09T19:20:14.807Z,4.50
2023-01-09T19:22:42.642Z,4.40
2023-01-09T19:25:12.450Z,4.30
2023-01-09T19:27:40.415Z,4.30
2023-01-09T19:30:09.670Z,4.30
2023-01-09T19:32:38.347Z,4.30
2023-01-09T19:35:06.732Z,4.20
2023-01-09T19:37:35.312Z,4.20
2023-01-09T19:40:03.209Z,4.10
2023-01-09T19:42:32.407Z,4.10
2023-01-09T19:45:00.335Z,4.10
2023-01-09T19:47:28.402Z,4.10
2023-01-09T19:49:56.275Z,4.10
2023-01-09T19:52:24.161Z,4.10
2023-01-09T19:54:51.993Z,4.00
2023-01-09T19:57:19.935Z,4.00
2023-01-09T19:59:49.171Z,4.00
2023-01-09T20:02:17.201Z,4.00
2023-01-09T20:04:45.145Z,4.00
2023-01-09T20:07:13.041Z,4.00
2023-01-09T20:09:40.893Z,4.00
2023-01-09T20:12:08.857Z,3.90
2023-01-09T20:14:37.768Z,3.90
2023-01-09T20:17:06.980Z,3.90
2023-01-09T20:19:35.139Z,3.90
2023-01-09T20:22:03.133Z,3.90
2023-01-09T20:24:30.984Z,3.90
2023-01-09T20:26:58.853Z,3.90
2023-01-09T20:29:26.772Z,3.90
2023-01-09T20:31:54.745Z,3.90
2023-01-09T20:34:23.994Z,3.90
2023-01-09T20:36:51.891Z,3.90
2023-01-09T20:39:19.883Z,3.90
2023-01-09T20:41:48.198Z,3.90
2023-01-09T20:44:16.609Z,3.90
2023-01-09T20:46:48.218Z,3.90
2023-01-09T20:49:18.074Z,4.00
2023-01-09T20:51:49.125Z,4.00
2023-01-09T20:54:18.716Z,4.00
2023-01-09T20:56:46.563Z,4.10
2023-01-09T20:59:17.816Z,4.10
2023-01-09T21:01:45.769Z,4.10
2023-01-09T21:04:13.741Z,4.10
2023-01-09T21:06:42.569Z,4.20
2023-01-09T21:09:11.839Z,4.20
2023-01-09T21:11:39.658Z,4.20
2023-01-09T21:14:07.504Z,4.20
2023-01-09T21:16:35.446Z,4.30
2023-01-09T21:19:03.374Z,4.30
2023-01-09T21:21:31.213Z,4.30
2023-01-09T21:24:00.543Z,4.30
2023-01-09T21:26:30.609Z,4.20
2023-01-09T21:29:00.603Z,4.20
2023-01-09T21:31:33.626Z,4.20
2023-01-09T21:34:03.205Z,4.10
2023-01-09T21:36:31.216Z,4.10
2023-01-09T21:38:59.699Z,4.10
2023-01-09T21:41:46.684Z,4.00
2023-01-09T21:44:32.418Z,4.00
2023-01-09T21:47:01.417Z,4.00
2023-01-09T21:49:31.397Z,4.00
2023-01-09T21:51:59.380Z,4.00
2023-01-09T21:54:27.479Z,4.00
2023-01-09T21:56:56.950Z,4.00
2023-01-09T21:59:24.830Z,3.90
2023-01-09T22:01:53.100Z,4.00
2023-01-09T22:04:24.187Z,4.00
2023-01-09T22:06:52.254Z,4.00
2023-01-09T22:09:20.090Z,4.10
2023-01-09T22:11:48.417Z,4.10
2023-01-09T22:14:19.522Z,4.20
2023-01-09T22:16:47.833Z,4.20
2023-01-09T22:19:17.987Z,4.20
2023-01-09T22:21:45.981Z,4.20
2023-01-09T22:24:15.028Z,4.20
2023-01-09T22:26:42.955Z,4.20
2023-01-09T22:29:10.869Z,4.10
2023-01-09T22:31:40.700Z,4.10
2023-01-09T22:34:08.772Z,4.10
2023-01-09T22:36:38.042Z,4.10
2023-01-09T22:39:05.947Z,4.10
2023-01-09T22:41:34.388Z,4.10
2023-01-09T22:44:02.351Z,4.20
2023-01-09T22:46:31.975Z,4.20
2023-01-09T22:49:02.025Z,4.20
2023-01-09T22:51:33.546Z,4.20
2023-01-09T22:54:01.832Z,4.20
2023-01-09T22:56:32.139Z,4.20
2023-01-09T22:59:01.003Z,4.20
2023-01-09T23:01:29.146Z,4.20
2023-01-09T23:03:56.953Z,4.20
2023-01-09T23:06:26.672Z,4.20
2023-01-09T23:08:54.573Z,4.30
2023-01-09T23:11:39.278Z,4.30
2023-01-09T23:14:07.171Z,4.30
2023-01-09T23:16:35.051Z,4.30
2023-01-09T23:19:03.081Z,4.30
2023-01-09T23:21:32.239Z,4.30
2023-01-09T23:24:00.082Z,4.30
2023-01-09T23:26:27.937Z,4.30
2023-01-09T23:28:55.902Z,4.20
2023-01-09T23:31:23.868Z,4.20
2023-01-09T23:33:51.726Z,4.20
2023-01-09T23:36:22.311Z,4.20
2023-01-09T23:38:51.504Z,4.20
2023-01-09T23:41:19.439Z,4.20
2023-01-09T23:43:46.351Z,4.20
2023-01-09T23:46:14.283Z,4.20
2023-01-09T23:48:42.174Z,4.20
2023-01-09T23:51:10.021Z,4.20
2023-01-09T23:53:37.856Z,4.20
2023-01-09T23:56:07.341Z,4.20
2023-01-09T23:58:35.179Z,4.20
